Time;durP1;ratioP1;P1;durP2;ratioP2;P2;SDS_P1;SDS_P2;PMS_P1;PMS_P2;Temp;Humidity;BMP_temperature;BMP_pressure;BME280_temperature;BME280_humidity;BME280_pressure;Samples;Min_cycle;Max_cycle;Signal;HPM_P1;HPM_P2
2023/06/02 00:00:01;;;;;;;;;;;;;;;;;;5073792;28;19926;-74
2023/06/02 00:02:29;;;;;;;;;;;;;;;;;;5073711;28;20392;-73
2023/06/02 00:04:57;;;;;;;;;;;;;;;;;;5073674;28;19970;-74
2023/06/02 00:07:25;;;;;;;;;;;;;;;;;;5072611;28;19920;-73
2023/06/02 00:09:50;;;;;;;;;;;;;;;;;;5073525;28;19908;-74
2023/06/02 00:12:15;;;;;;;;;;;;;;;;;;5073659;28;20285;-75
2023/06/02 00:14:42;;;;;;;;;;;;;;;;;;5073738;28;19912;-74
2023/06/02 00:17:07;;;;;;;;;;;;;;;;;;5073939;28;19915;-74
2023/06/02 00:19:32;;;;;;;;;;;;;;;;;;5073508;28;19912;-75
2023/06/02 00:21:58;;;;;;;;;;;;;;;;;;5073546;28;19962;-76
2023/06/02 00:24:23;;;;;;;;;;;;;;;;;;5073150;28;20026;-75
2023/06/02 00:26:48;;;;;;;;;;;;;;;;;;5073380;28;19919;-75
2023/06/02 00:29:14;;;;;;;;;;;;;;;;;;5055723;28;20340;-75
2023/06/02 00:31:39;;;;;;;;;;;;;;;;;;5055696;28;20433;-75
2023/06/02 00:34:04;;;;;;;;;;;;;;;;;;5055528;28;19912;-74
2023/06/02 00:36:30;;;;;;;;;;;;;;;;;;5072973;28;19912;-74
2023/06/02 00:38:55;;;;;;;;;;;;;;;;;;5073081;28;19912;-75
2023/06/02 00:41:20;;;;;;;;;;;;;;;;;;5073009;28;20359;-74
2023/06/02 00:43:45;;;;;;;;;;;;;;;;;;5055188;28;20009;-74
2023/06/02 00:46:11;;;;;;;;;;;;;;;;;;5073363;28;20003;-73
2023/06/02 00:48:36;;;;;;;;;;;;;;;;;;5073219;28;19923;-73
2023/06/02 00:51:02;;;;;;;;;;;;;;;;;;5072950;28;19928;-73
2023/06/02 00:53:27;;;;;;;;;;;;;;;;;;5072842;28;19954;-73
2023/06/02 00:55:55;;;;;;;;;;;;;;;;;;5055068;28;19912;-73
2023/06/02 00:58:21;;;;;;;;;;;;;;;;;;5073108;28;19913;-73
2023/06/02 01:00:47;;;;;;;;;;;;;;;;;;5073266;28;19917;-73
2023/06/02 01:03:13;;;;;;;;;;;;;;;;;;5073104;28;20379;-73
2023/06/02 01:05:39;;;;;;;;;;;;;;;;;;5072751;28;19957;-72
2023/06/02 01:08:04;;;;;;;;;;;;;;;;;;5072743;28;19916;-74
2023/06/02 01:10:30;;;;;;;;;;;;;;;;;;5072809;28;20008;-74
2023/06/02 01:12:55;;;;;;;;;;;;;;;;;;5072618;28;20363;-73
2023/06/02 01:15:20;;;;;;;;;;;;;;;;;;5073222;28;20325;-73
2023/06/02 01:17:46;;;;;;;;;;;;;;;;;;5056599;28;19912;-73
2023/06/02 01:20:11;;;;;;;;;;;;;;;;;;5076583;28;19912;-73
2023/06/02 01:22:38;;;;;;;;;;;;;;;;;;5074961;28;19954;-73
2023/06/02 01:25:03;;;;;;;;;;;;;;;;;;5076104;28;19948;-73
2023/06/02 01:27:29;;;;;;;;;;;;;;;;;;5058301;28;19912;-73
2023/06/02 01:29:55;;;;;;;;;;;;;;;;;;5058388;28;19931;-73
2023/06/02 01:32:20;;;;;;;;;;;;;;;;;;5074940;28;19919;-73
2023/06/02 01:34:46;;;;;;;;;;;;;;;;;;5075392;28;19916;-73
2023/06/02 01:37:11;;;;;;;;;;;;;;;;;;5076497;28;19912;-73
2023/06/02 01:39:36;;;;;;;;;;;;;;;;;;5075126;28;20426;-73
2023/06/02 01:42:02;;;;;;;;;;;;;;;;;;5089212;28;19908;-73
2023/06/02 01:44:27;;;;;;;;;;;;;;;;;;5092930;28;19938;-73
2023/06/02 01:46:53;;;;;;;;;;;;;;;;;;5094410;28;19935;-73
2023/06/02 01:49:18;;;;;;;;;;;;;;;;;;5082191;28;19912;-74
2023/06/02 01:51:44;;;;;;;;;;;;;;;;;;5058020;28;19934;-74
2023/06/02 01:54:10;;;;;;;;;;;;;;;;;;5057690;28;19916;-73
2023/06/02 01:56:35;;;;;;;;;;;;;;;;;;5057828;28;19908;-73
2023/06/02 01:59:02;;;;;;;;;;;;;;;;;;5057848;28;20390;-74
2023/06/02 02:01:27;;;;;;;;;;;;;;;;;;5075683;28;19913;-74
2023/06/02 02:03:52;;;;;;;;;;;;;;;;;;5075919;28;19951;-74
2023/06/02 02:06:18;;;;;;;;;;;;;;;;;;5075915;28;19912;-74
2023/06/02 02:08:43;;;;;;;;;;;;;;;;;;5075755;28;19938;-75
2023/06/02 02:11:08;;;;;;;;;;;;;;;;;;5075587;28;19923;-73
2023/06/02 02:13:33;;;;;;;;;;;;;;;;;;5075973;28;19912;-74
2023/06/02 02:15:58;;;;;;;;;;;;;;;;;;5057645;28;20360;-74
2023/06/02 02:18:24;;;;;;;;;;;;;;;;;;5075518;28;19931;-74
2023/06/02 02:20:49;;;;;;;;;;;;;;;;;;5075525;28;19982;-74
2023/06/02 02:23:15;;;;;;;;;;;;;;;;;;5075092;28;20374;-74
2023/06/02 02:25:40;;;;;;;;;;;;;;;;;;5075334;28;19928;-73
2023/06/02 02:28:05;;;;;;;;;;;;;;;;;;5075599;28;20318;-73
2023/06/02 02:30:30;;;;;;;;;;;;;;;;;;5056343;28;19919;-73
2023/06/02 02:32:56;;;;;;;;;;;;;;;;;;5075158;28;19953;-74
2023/06/02 02:35:21;;;;;;;;;;;;;;;;;;5075216;28;19919;-73
2023/06/02 02:37:46;;;;;;;;;;;;;;;;;;5075125;28;19916;-73
2023/06/02 02:40:13;;;;;;;;;;;;;;;;;;5056748;28;19970;-74
2023/06/02 02:42:38;;;;;;;;;;;;;;;;;;5074919;28;19952;-75
2023/06/02 02:45:04;;;;;;;;;;;;;;;;;;5056998;28;19908;-75
2023/06/02 02:47:31;;;;;;;;;;;;;;;;;;5057141;28;19912;-73
2023/06/02 02:49:56;;;;;;;;;;;;;;;;;;5056871;28;19913;-73
2023/06/02 02:52:23;;;;;;;;;;;;;;;;;;5074969;28;19958;-73
2023/06/02 02:54:49;;;;;;;;;;;;;;;;;;5056817;28;19912;-74
2023/06/02 02:57:15;;;;;;;;;;;;;;;;;;5056902;28;19912;-74
2023/06/02 02:59:40;;;;;;;;;;;;;;;;;;5074742;28;19995;-73
2023/06/02 03:02:06;;;;;;;;;;;;;;;;;;5054541;28;19931;-74
2023/06/02 03:04:31;;;;;;;;;;;;;;;;;;5070733;28;20363;-73
2023/06/02 03:06:57;;;;;;;;;;;;;;;;;;5052687;28;20397;-74
2023/06/02 03:09:25;;;;;;;;;;;;;;;;;;5070285;28;19908;-74
2023/06/02 03:11:53;;;;;;;;;;;;;;;;;;5052756;28;19912;-73
2023/06/02 03:14:18;;;;;;;;;;;;;;;;;;5070129;28;19962;-74
2023/06/02 03:16:48;;;;;;;;;;;;;;;;;;5053074;28;19919;-73
2023/06/02 03:19:14;;;;;;;;;;;;;;;;;;5052875;28;19994;-75
2023/06/02 03:21:42;;;;;;;;;;;;;;;;;;5052429;28;19916;-73
2023/06/02 03:24:08;;;;;;;;;;;;;;;;;;5051654;28;19927;-75
2023/06/02 03:26:34;;;;;;;;;;;;;;;;;;5070628;28;19916;-73
2023/06/02 03:28:59;;;;;;;;;;;;;;;;;;5052343;28;20364;-76
2023/06/02 03:31:25;;;;;;;;;;;;;;;;;;5070261;28;19951;-74
2023/06/02 03:33:51;;;;;;;;;;;;;;;;;;5051811;28;19919;-76
2023/06/02 03:36:19;;;;;;;;;;;;;;;;;;5051800;28;20003;-74
2023/06/02 03:38:44;;;;;;;;;;;;;;;;;;5051640;28;19916;-74
2023/06/02 03:41:10;;;;;;;;;;;;;;;;;;5052180;28;19953;-74
2023/06/02 03:43:35;;;;;;;;;;;;;;;;;;5051875;28;19916;-74
2023/06/02 03:46:01;;;;;;;;;;;;;;;;;;5052076;28;19912;-74
2023/06/02 03:48:26;;;;;;;;;;;;;;;;;;5070683;28;19923;-74
2023/06/02 03:50:51;;;;;;;;;;;;;;;;;;5051950;28;20019;-75
2023/06/02 03:53:16;;;;;;;;;;;;;;;;;;5051967;28;19912;-74
2023/06/02 03:55:42;;;;;;;;;;;;;;;;;;5051623;28;19919;-76
2023/06/02 03:58:07;;;;;;;;;;;;;;;;;;5051785;28;19917;-74
2023/06/02 04:00:32;;;;;;;;;;;;;;;;;;5069987;28;19913;-74
2023/06/02 04:03:00;;;;;;;;;;;;;;;;;;5051683;28;19917;-74
2023/06/02 04:05:26;;;;;;;;;;;;;;;;;;5051480;28;19999;-74
2023/06/02 04:07:52;;;;;;;;;;;;;;;;;;5051470;28;20359;-75
2023/06/02 04:10:17;;;;;;;;;;;;;;;;;;5051137;28;19962;-75
2023/06/02 04:12:43;;;;;;;;;;;;;;;;;;5069746;28;19935;-75
2023/06/02 04:15:08;;;;;;;;;;;;;;;;;;5052382;28;19912;-74
2023/06/02 04:17:34;;;;;;;;;;;;;;;;;;5051748;28;20378;-74
2023/06/02 04:19:59;;;;;;;;;;;;;;;;;;5052597;28;20326;-74
2023/06/02 04:22:25;;;;;;;;;;;;;;;;;;5056635;28;19986;-74
2023/06/02 04:24:50;;;;;;;;;;;;;;;;;;5051124;28;19973;-74
2023/06/02 04:27:15;;;;;;;;;;;;;;;;;;5051423;28;20386;-73
2023/06/02 04:29:41;;;;;;;;;;;;;;;;;;5051927;28;19908;-74
2023/06/02 04:32:06;;;;;;;;;;;;;;;;;;5051016;28;19923;-77
2023/06/02 04:34:32;;;;;;;;;;;;;;;;;;5051959;28;20359;-75
2023/06/02 04:36:57;;;;;;;;;;;;;;;;;;5051575;28;20280;-73
2023/06/02 04:39:23;;;;;;;;;;;;;;;;;;5050929;28;19981;-75
2023/06/02 04:41:49;;;;;;;;;;;;;;;;;;5049833;28;19920;-76
2023/06/02 04:44:16;;;;;;;;;;;;;;;;;;5069256;28;20272;-74
2023/06/02 04:46:43;;;;;;;;;;;;;;;;;;5051498;28;20360;-74
2023/06/02 04:49:09;;;;;;;;;;;;;;;;;;5051471;28;20011;-74
2023/06/02 04:51:34;;;;;;;;;;;;;;;;;;5051005;28;19965;-74
2023/06/02 04:54:00;;;;;;;;;;;;;;;;;;5050524;28;19908;-74
2023/06/02 04:56:25;;;;;;;;;;;;;;;;;;5069356;28;19912;-74
2023/06/02 04:58:51;;;;;;;;;;;;;;;;;;5051062;28;19977;-74
2023/06/02 05:01:16;;;;;;;;;;;;;;;;;;5053772;28;19920;-76
2023/06/02 05:03:41;;;;;;;;;;;;;;;;;;5051331;28;19926;-76
2023/06/02 05:06:06;;;;;;;;;;;;;;;;;;5019495;28;19920;-74
2023/06/02 05:08:32;;;;;;;;;;;;;;;;;;5029083;28;20346;-76
2023/06/02 05:10:57;;;;;;;;;;;;;;;;;;5038540;28;20031;-74
2023/06/02 05:13:23;;;;;;;;;;;;;;;;;;5049029;28;19912;-74
2023/06/02 05:15:49;;;;;;;;;;;;;;;;;;5040495;28;20383;-74
2023/06/02 05:18:14;;;;;;;;;;;;;;;;;;5047252;28;19966;-75
2023/06/02 05:20:41;;;;;;;;;;;;;;;;;;5045919;28;20287;-74
2023/06/02 05:23:06;;;;;;;;;;;;;;;;;;5037872;28;19971;-72
2023/06/02 05:25:31;;;;;;;;;;;;;;;;;;5047337;28;19916;-73
2023/06/02 05:27:57;;;;;;;;;;;;;;;;;;5050673;28;20347;-72
2023/06/02 05:30:22;;;;;;;;;;;;;;;;;;5048765;28;20391;-75
2023/06/02 05:32:47;;;;;;;;;;;;;;;;;;5064111;28;19913;-75
2023/06/02 05:35:13;;;;;;;;;;;;;;;;;;5065489;28;19923;-75
2023/06/02 05:37:39;;;;;;;;;;;;;;;;;;5050175;28;19913;-72
2023/06/02 05:40:05;;;;;;;;;;;;;;;;;;5049386;28;19912;-75
2023/06/02 05:42:31;;;;;;;;;;;;;;;;;;5036947;28;19916;-74
2023/06/02 05:44:57;;;;;;;;;;;;;;;;;;5051019;28;19916;-76
2023/06/02 05:47:22;;;;;;;;;;;;;;;;;;5050643;28;20327;-73
2023/06/02 05:49:49;;;;;;;;;;;;;;;;;;5049311;28;19917;-74
2023/06/02 05:52:14;;;;;;;;;;;;;;;;;;5050185;28;19912;-74
2023/06/02 05:54:39;;;;;;;;;;;;;;;;;;5050538;28;19913;-74
2023/06/02 05:57:05;;;;;;;;;;;;;;;;;;5050073;28;19917;-74
2023/06/02 05:59:30;;;;;;;;;;;;;;;;;;5050907;28;19959;-75
2023/06/02 06:01:56;;;;;;;;;;;;;;;;;;5050176;28;20291;-74
2023/06/02 06:04:21;;;;;;;;;;;;;;;;;;5050887;28;19912;-74
2023/06/02 06:06:46;;;;;;;;;;;;;;;;;;5052329;28;19916;-74
2023/06/02 06:09:12;;;;;;;;;;;;;;;;;;5053038;28;19916;-77
2023/06/02 06:11:37;;;;;;;;;;;;;;;;;;5044069;28;20338;-76
2023/06/02 06:14:05;;;;;;;;;;;;;;;;;;5053760;28;19916;-69
2023/06/02 06:16:30;;;;;;;;;;;;;;;;;;5051356;28;19912;-69
2023/06/02 06:18:56;;;;;;;;;;;;;;;;;;5052773;28;19935;-70
2023/06/02 06:21:22;;;;;;;;;;;;;;;;;;5059329;28;19919;-70
2023/06/02 06:23:48;;;;;;;;;;;;;;;;;;5071081;28;19961;-68
2023/06/02 06:26:13;;;;;;;;;;;;;;;;;;5043201;28;19917;-71
2023/06/02 06:28:39;;;;;;;;;;;;;;;;;;5033330;28;19916;-68
2023/06/02 06:31:04;;;;;;;;;;;;;;;;;;5068018;28;19927;-68
2023/06/02 06:33:30;;;;;;;;;;;;;;;;;;5065603;28;20425;-68
2023/06/02 06:35:56;;;;;;;;;;;;;;;;;;5044322;28;19917;-66
2023/06/02 06:38:22;;;;;;;;;;;;;;;;;;5030440;28;19913;-66
2023/06/02 06:40:47;;;;;;;;;;;;;;;;;;5063691;28;19966;-65
2023/06/02 06:43:15;;;;;;;;;;;;;;;;;;5052900;28;20033;-66
2023/06/02 06:45:44;;;;;;;;;;;;;;;;;;5060313;28;19920;-65
2023/06/02 06:48:11;;;;;;;;;;;;;;;;;;5049361;28;19942;-67
2023/06/02 06:50:36;;;;;;;;;;;;;;;;;;5057139;28;20392;-66
2023/06/02 06:53:03;;;;;;;;;;;;;;;;;;5068802;28;19967;-65
2023/06/02 06:55:28;;;;;;;;;;;;;;;;;;5062234;28;19916;-64
2023/06/02 06:57:54;;;;;;;;;;;;;;;;;;5049376;28;19916;-66
2023/06/02 07:00:19;;;;;;;;;;;;;;;;;;5048594;28;19978;-67
2023/06/02 07:02:44;;;;;;;;;;;;;;;;;;5052984;28;20432;-65
2023/06/02 07:05:10;;;;;;;;;;;;;;;;;;5048658;28;19908;-64
2023/06/02 07:07:35;;;;;;;;;;;;;;;;;;5047249;28;19916;-65
2023/06/02 07:10:00;;;;;;;;;;;;;;;;;;5048615;28;19948;-66
2023/06/02 07:12:25;;;;;;;;;;;;;;;;;;5048848;28;19917;-66
2023/06/02 07:14:52;;;;;;;;;;;;;;;;;;5048754;28;19913;-64
2023/06/02 07:17:17;;;;;;;;;;;;;;;;;;5049774;28;19912;-72
2023/06/02 07:19:43;;;;;;;;;;;;;;;;;;5051238;28;19913;-72
2023/06/02 07:22:08;;;;;;;;;;;;;;;;;;5050669;28;20344;-72
2023/06/02 07:24:33;;;;;;;;;;;;;;;;;;5050399;28;19917;-72
2023/06/02 07:26:58;;;;;;;;;;;;;;;;;;5060945;28;19965;-72
2023/06/02 07:29:25;;;;;;;;;;;;;;;;;;5068880;28;19916;-72
2023/06/02 07:31:50;;;;;;;;;;;;;;;;;;5039465;28;19927;-73
2023/06/02 07:34:15;;;;;;;;;;;;;;;;;;5068416;28;19916;-72
2023/06/02 07:36:43;;;;;;;;;;;;;;;;;;5069128;28;19999;-72
2023/06/02 07:39:08;;;;;;;;;;;;;;;;;;5068855;28;19986;-72
2023/06/02 07:41:34;;;;;;;;;;;;;;;;;;5068462;28;20370;-73
2023/06/02 07:43:59;;;;;;;;;;;;;;;;;;5067942;28;19920;-72
2023/06/02 07:46:24;;;;;;;;;;;;;;;;;;5073006;28;20268;-73
2023/06/02 07:48:50;;;;;;;;;;;;;;;;;;5061467;28;19950;-72
2023/06/02 07:51:15;;;;;;;;;;;;;;;;;;5069531;28;20406;-72
2023/06/02 07:53:40;;;;;;;;;;;;;;;;;;5068393;28;19997;-73
2023/06/02 07:56:05;;;;;;;;;;;;;;;;;;5061156;28;19919;-72
2023/06/02 07:58:30;;;;;;;;;;;;;;;;;;5050032;28;20367;-72
2023/06/02 08:00:56;;;;;;;;;;;;;;;;;;5057123;28;20009;-72
2023/06/02 08:03:21;;;;;;;;;;;;;;;;;;5068623;28;19916;-72
2023/06/02 08:05:46;;;;;;;;;;;;;;;;;;5068599;28;19916;-72
2023/06/02 08:08:12;;;;;;;;;;;;;;;;;;5067381;28;20387;-72
2023/06/02 08:10:37;;;;;;;;;;;;;;;;;;5072868;28;19976;-72
2023/06/02 08:13:02;;;;;;;;;;;;;;;;;;5067313;28;19912;-73
2023/06/02 08:15:27;;;;;;;;;;;;;;;;;;5066143;28;19928;-73
2023/06/02 08:17:53;;;;;;;;;;;;;;;;;;5067248;28;19913;-73
2023/06/02 08:20:18;;;;;;;;;;;;;;;;;;5066918;28;20390;-73
2023/06/02 08:22:47;;;;;;;;;;;;;;;;;;5064505;28;19954;-72
2023/06/02 08:25:12;;;;;;;;;;;;;;;;;;5065470;28;19916;-73
2023/06/02 08:27:38;;;;;;;;;;;;;;;;;;5065862;28;19919;-73
2023/06/02 08:30:04;;;;;;;;;;;;;;;;;;5065517;28;19943;-73
2023/06/02 08:32:29;;;;;;;;;;;;;;;;;;5066757;28;19965;-72
2023/06/02 08:34:56;;;;;;;;;;;;;;;;;;5048718;28;19965;-73
2023/06/02 08:37:21;;;;;;;;;;;;;;;;;;5066510;28;19908;-73
2023/06/02 08:39:46;;;;;;;;;;;;;;;;;;5048402;28;19920;-73
2023/06/02 08:42:12;;;;;;;;;;;;;;;;;;5066344;28;19966;-73
2023/06/02 08:44:37;;;;;;;;;;;;;;;;;;5066889;28;20376;-73
2023/06/02 08:47:02;;;;;;;;;;;;;;;;;;5067404;28;19967;-73
2023/06/02 08:49:27;;;;;;;;;;;;;;;;;;5067201;28;19982;-73
2023/06/02 08:51:53;;;;;;;;;;;;;;;;;;5068114;28;20015;-73
2023/06/02 08:54:18;;;;;;;;;;;;;;;;;;5069126;28;19912;-73
2023/06/02 08:56:43;;;;;;;;;;;;;;;;;;5069021;28;20390;-73
2023/06/02 08:59:09;;;;;;;;;;;;;;;;;;5068899;28;20386;-73
2023/06/02 09:01:34;;;;;;;;;;;;;;;;;;5067559;28;19991;-72
2023/06/02 09:03:59;;;;;;;;;;;;;;;;;;5068845;28;19916;-73
2023/06/02 09:06:26;;;;;;;;;;;;;;;;;;5069153;28;19916;-73
2023/06/02 09:08:51;;;;;;;;;;;;;;;;;;5069035;28;19917;-73
2023/06/02 09:11:19;;;;;;;;;;;;;;;;;;5068706;28;19924;-71
2023/06/02 09:13:44;;;;;;;;;;;;;;;;;;5050861;28;19908;-73
2023/06/02 09:16:09;;;;;;;;;;;;;;;;;;5068535;28;20007;-73
2023/06/02 09:18:35;;;;;;;;;;;;;;;;;;5068838;28;19913;-71
2023/06/02 09:21:00;;;;;;;;;;;;;;;;;;5068949;28;19912;-72
2023/06/02 09:23:25;;;;;;;;;;;;;;;;;;5068510;28;19924;-73
2023/06/02 09:25:52;;;;;;;;;;;;;;;;;;5068482;28;19962;-71
2023/06/02 09:28:17;;;;;;;;;;;;;;;;;;5068497;28;19931;-73
2023/06/02 09:30:42;;;;;;;;;;;;;;;;;;5068741;28;19908;-73
2023/06/02 09:33:08;;;;;;;;;;;;;;;;;;5068722;28;19916;-73
2023/06/02 09:35:34;;;;;;;;;;;;;;;;;;5068597;28;19915;-73
2023/06/02 09:37:59;;;;;;;;;;;;;;;;;;5068826;28;19912;-73
2023/06/02 09:40:24;;;;;;;;;;;;;;;;;;5071877;28;20374;-73
2023/06/02 09:42:50;;;;;;;;;;;;;;;;;;5072107;28;19912;-73
2023/06/02 09:45:15;;;;;;;;;;;;;;;;;;5054107;28;19912;-72
2023/06/02 09:47:41;;;;;;;;;;;;;;;;;;5072026;28;19987;-72
2023/06/02 09:50:06;;;;;;;;;;;;;;;;;;5071918;28;19943;-73
2023/06/02 09:52:33;;;;;;;;;;;;;;;;;;5054147;28;19920;-72
2023/06/02 09:54:58;;;;;;;;;;;;;;;;;;5071953;28;19912;-73
2023/06/02 09:57:23;;;;;;;;;;;;;;;;;;5071959;28;19916;-72
2023/06/02 09:59:49;;;;;;;;;;;;;;;;;;5071865;28;20408;-72
2023/06/02 10:02:14;;;;;;;;;;;;;;;;;;5071923;28;19912;-72
2023/06/02 10:04:40;;;;;;;;;;;;;;;;;;5071735;28;19916;-73
2023/06/02 10:07:07;;;;;;;;;;;;;;;;;;5071844;28;20343;-73
2023/06/02 10:09:33;;;;;;;;;;;;;;;;;;5071843;28;19923;-72
2023/06/02 10:11:58;;;;;;;;;;;;;;;;;;5071493;28;19912;-72
2023/06/02 10:14:23;;;;;;;;;;;;;;;;;;5071352;28;19948;-72
2023/06/02 10:16:49;;;;;;;;;;;;;;;;;;5071563;28;19919;-73
2023/06/02 10:19:14;;;;;;;;;;;;;;;;;;5071854;28;19912;-72
2023/06/02 10:21:39;;;;;;;;;;;;;;;;;;5071424;28;19919;-73
2023/06/02 10:24:05;;;;;;;;;;;;;;;;;;5071174;28;19921;-72
2023/06/02 10:26:30;;;;;;;;;;;;;;;;;;5071358;28;19961;-72
2023/06/02 10:28:55;;;;;;;;;;;;;;;;;;5071887;28;20282;-73
2023/06/02 10:31:21;;;;;;;;;;;;;;;;;;5053810;28;20367;-73
2023/06/02 10:33:46;;;;;;;;;;;;;;;;;;5071368;28;19912;-72
2023/06/02 10:36:17;;;;;;;;;;;;;;;;;;5071218;28;20053;-71
2023/06/02 10:38:42;;;;;;;;;;;;;;;;;;5071617;28;19915;-71
2023/06/02 10:41:08;;;;;;;;;;;;;;;;;;5071344;28;19916;-71
2023/06/02 10:43:34;;;;;;;;;;;;;;;;;;5053405;28;19916;-72
2023/06/02 10:45:59;;;;;;;;;;;;;;;;;;5071086;28;20386;-72
2023/06/02 10:48:24;;;;;;;;;;;;;;;;;;5070748;28;19912;-72
2023/06/02 10:50:50;;;;;;;;;;;;;;;;;;5070673;28;19913;-71
2023/06/02 10:53:15;;;;;;;;;;;;;;;;;;5071393;28;20011;-72
2023/06/02 10:55:41;;;;;;;;;;;;;;;;;;5052911;28;20418;-72
2023/06/02 10:58:07;;;;;;;;;;;;;;;;;;5070776;28;19958;-71
2023/06/02 11:00:32;;;;;;;;;;;;;;;;;;5052858;28;19916;-73
2023/06/02 11:02:57;;;;;;;;;;;;;;;;;;5070991;28;19915;-72
2023/06/02 11:05:23;;;;;;;;;;;;;;;;;;5071043;28;19913;-72
2023/06/02 11:07:48;;;;;;;;;;;;;;;;;;5071134;28;19916;-72
2023/06/02 11:10:13;;;;;;;;;;;;;;;;;;5070463;28;19912;-72
2023/06/02 11:12:38;;;;;;;;;;;;;;;;;;5070795;28;19952;-70
2023/06/02 11:15:04;;;;;;;;;;;;;;;;;;5052893;28;19920;-71
2023/06/02 11:17:30;;;;;;;;;;;;;;;;;;5071246;28;19939;-72
2023/06/02 11:19:56;;;;;;;;;;;;;;;;;;5071088;28;20019;-70
2023/06/02 11:22:21;;;;;;;;;;;;;;;;;;5070355;28;20030;-70
2023/06/02 11:24:47;;;;;;;;;;;;;;;;;;5070403;28;20015;-71
2023/06/02 11:27:12;;;;;;;;;;;;;;;;;;5053243;28;20004;-72
2023/06/02 11:29:37;;;;;;;;;;;;;;;;;;5077948;28;19922;-71
2023/06/02 11:32:02;;;;;;;;;;;;;;;;;;5079376;28;19915;-71
2023/06/02 11:34:28;;;;;;;;;;;;;;;;;;5058029;28;19916;-72
2023/06/02 11:36:54;;;;;;;;;;;;;;;;;;5070658;28;19908;-71
2023/06/02 11:39:19;;;;;;;;;;;;;;;;;;5070535;28;19913;-72
2023/06/02 11:41:44;;;;;;;;;;;;;;;;;;5052495;28;20342;-71
2023/06/02 11:44:09;;;;;;;;;;;;;;;;;;5069889;28;19917;-73
2023/06/02 11:46:35;;;;;;;;;;;;;;;;;;5070007;28;19998;-71
2023/06/02 11:49:00;;;;;;;;;;;;;;;;;;5070165;28;20352;-72
2023/06/02 11:51:26;;;;;;;;;;;;;;;;;;5070178;28;19948;-73
2023/06/02 11:53:51;;;;;;;;;;;;;;;;;;5070285;28;19912;-73
2023/06/02 11:56:17;;;;;;;;;;;;;;;;;;5070189;28;19912;-73
2023/06/02 11:58:43;;;;;;;;;;;;;;;;;;5070029;28;19938;-74
2023/06/02 12:01:09;;;;;;;;;;;;;;;;;;5051908;28;20011;-72
2023/06/02 12:03:34;;;;;;;;;;;;;;;;;;5069037;28;20364;-73
2023/06/02 12:05:59;;;;;;;;;;;;;;;;;;5052034;28;19919;-75
2023/06/02 12:08:25;;;;;;;;;;;;;;;;;;5069847;28;19972;-73
2023/06/02 12:10:50;;;;;;;;;;;;;;;;;;5069679;28;19963;-73
2023/06/02 12:13:16;;;;;;;;;;;;;;;;;;5052215;28;19920;-72
2023/06/02 12:15:41;;;;;;;;;;;;;;;;;;5070063;28;19918;-72
2023/06/02 12:18:06;;;;;;;;;;;;;;;;;;5069455;28;19962;-73
2023/06/02 12:20:32;;;;;;;;;;;;;;;;;;5069587;28;19916;-72
2023/06/02 12:22:57;;;;;;;;;;;;;;;;;;5051375;28;20381;-72
2023/06/02 12:25:22;;;;;;;;;;;;;;;;;;5069709;28;20335;-74
2023/06/02 12:27:48;;;;;;;;;;;;;;;;;;5069458;28;19912;-73
2023/06/02 12:30:14;;;;;;;;;;;;;;;;;;5069593;28;19915;-72
2023/06/02 12:32:39;;;;;;;;;;;;;;;;;;5069345;28;19964;-71
2023/06/02 12:35:05;;;;;;;;;;;;;;;;;;5070455;28;20322;-72
2023/06/02 12:37:30;;;;;;;;;;;;;;;;;;5069401;28;20019;-71
2023/06/02 12:39:56;;;;;;;;;;;;;;;;;;5051236;28;19909;-73
2023/06/02 12:42:21;;;;;;;;;;;;;;;;;;5069137;28;19913;-73
2023/06/02 12:44:48;;;;;;;;;;;;;;;;;;5069334;28;19927;-74
2023/06/02 12:47:14;;;;;;;;;;;;;;;;;;5069122;28;19912;-73
2023/06/02 12:49:39;;;;;;;;;;;;;;;;;;5069331;28;19908;-73
2023/06/02 12:52:05;;;;;;;;;;;;;;;;;;5069391;28;19916;-73
2023/06/02 12:54:30;;;;;;;;;;;;;;;;;;5069110;28;20372;-72
2023/06/02 12:56:56;;;;;;;;;;;;;;;;;;5069295;28;19915;-73
2023/06/02 12:59:21;;;;;;;;;;;;;;;;;;5069296;28;20379;-73
2023/06/02 13:01:46;;;;;;;;;;;;;;;;;;5069617;28;19977;-73
2023/06/02 13:04:11;;;;;;;;;;;;;;;;;;5068831;28;19920;-72
2023/06/02 13:06:37;;;;;;;;;;;;;;;;;;5069042;28;19915;-72
2023/06/02 13:09:03;;;;;;;;;;;;;;;;;;5069150;28;19978;-71
2023/06/02 13:11:28;;;;;;;;;;;;;;;;;;5068955;28;20767;-71
2023/06/02 13:13:53;;;;;;;;;;;;;;;;;;5068587;28;19958;-73
2023/06/02 13:16:19;;;;;;;;;;;;;;;;;;5068738;28;19916;-72
2023/06/02 13:18:46;;;;;;;;;;;;;;;;;;5069052;28;20451;-73
2023/06/02 13:21:11;;;;;;;;;;;;;;;;;;5068972;28;19916;-73
2023/06/02 13:23:37;;;;;;;;;;;;;;;;;;5068726;28;19970;-72
2023/06/02 13:26:02;;;;;;;;;;;;;;;;;;5068425;28;19916;-72
2023/06/02 13:28:30;;;;;;;;;;;;;;;;;;5068890;28;19966;-72
2023/06/02 13:30:55;;;;;;;;;;;;;;;;;;5068487;28;20287;-72
2023/06/02 13:33:20;;;;;;;;;;;;;;;;;;5069041;28;19959;-73
2023/06/02 13:35:51;;;;;;;;;;;;;;;;;;5068914;28;20077;-73
2023/06/02 13:38:16;;;;;;;;;;;;;;;;;;5068278;28;19947;-73
2023/06/02 13:40:44;;;;;;;;;;;;;;;;;;5068856;28;19999;-72
2023/06/02 13:43:09;;;;;;;;;;;;;;;;;;5068441;28;19964;-72
2023/06/02 13:45:34;;;;;;;;;;;;;;;;;;5068745;28;19978;-73
2023/06/02 13:48:00;;;;;;;;;;;;;;;;;;5068739;28;19915;-74
2023/06/02 13:50:25;;;;;;;;;;;;;;;;;;5068410;28;20275;-72
2023/06/02 13:52:51;;;;;;;;;;;;;;;;;;5068459;28;19916;-72
2023/06/02 13:55:16;;;;;;;;;;;;;;;;;;5068492;28;19912;-73
2023/06/02 13:57:42;;;;;;;;;;;;;;;;;;5068261;28;20007;-73
2023/06/02 14:00:07;;;;;;;;;;;;;;;;;;5068381;28;19920;-73
2023/06/02 14:02:37;;;;;;;;;;;;;;;;;;5068475;28;20398;-73
2023/06/02 14:05:02;;;;;;;;;;;;;;;;;;5050456;28;20019;-73
2023/06/02 14:07:27;;;;;;;;;;;;;;;;;;5068317;28;19913;-73
2023/06/02 14:09:53;;;;;;;;;;;;;;;;;;5068262;28;19919;-73
2023/06/02 14:12:19;;;;;;;;;;;;;;;;;;5067881;28;20368;-73
2023/06/02 14:14:44;;;;;;;;;;;;;;;;;;5068272;28;19912;-72
2023/06/02 14:17:09;;;;;;;;;;;;;;;;;;5068400;28;19912;-73
2023/06/02 14:19:34;;;;;;;;;;;;;;;;;;5067969;28;19916;-73
2023/06/02 14:22:00;;;;;;;;;;;;;;;;;;5068056;28;19919;-73
2023/06/02 14:24:25;;;;;;;;;;;;;;;;;;5067817;28;20429;-71
2023/06/02 14:26:50;;;;;;;;;;;;;;;;;;5070567;28;19919;-72
2023/06/02 14:29:16;;;;;;;;;;;;;;;;;;5071610;28;20375;-72
2023/06/02 14:31:41;;;;;;;;;;;;;;;;;;5071654;28;20280;-72
2023/06/02 14:34:06;;;;;;;;;;;;;;;;;;5071436;28;19961;-72
2023/06/02 14:36:31;;;;;;;;;;;;;;;;;;5071452;28;19942;-72
2023/06/02 14:38:57;;;;;;;;;;;;;;;;;;5071341;28;20344;-73
2023/06/02 14:41:23;;;;;;;;;;;;;;;;;;5071123;28;19916;-72
2023/06/02 14:43:48;;;;;;;;;;;;;;;;;;5071318;28;19927;-72
2023/06/02 14:46:13;;;;;;;;;;;;;;;;;;5071369;28;20003;-71
2023/06/02 14:48:38;;;;;;;;;;;;;;;;;;5071075;28;19919;-71
2023/06/02 14:51:04;;;;;;;;;;;;;;;;;;5071000;28;20321;-72
2023/06/02 14:53:29;;;;;;;;;;;;;;;;;;5071177;28;20430;-73
2023/06/02 14:55:54;;;;;;;;;;;;;;;;;;5070948;28;20360;-72
2023/06/02 14:58:20;;;;;;;;;;;;;;;;;;5070716;28;20375;-72
2023/06/02 15:00:45;;;;;;;;;;;;;;;;;;5071197;28;19958;-71
2023/06/02 15:03:11;;;;;;;;;;;;;;;;;;5070846;28;20340;-72
2023/06/02 15:05:36;;;;;;;;;;;;;;;;;;5070879;28;20015;-71
2023/06/02 15:08:01;;;;;;;;;;;;;;;;;;5070873;28;19912;-72
2023/06/02 15:10:26;;;;;;;;;;;;;;;;;;5070869;28;19915;-72
2023/06/02 15:12:52;;;;;;;;;;;;;;;;;;5070592;28;19919;-73
2023/06/02 15:15:17;;;;;;;;;;;;;;;;;;5071307;28;20372;-72
2023/06/02 15:17:42;;;;;;;;;;;;;;;;;;5071032;28;19920;-71
2023/06/02 15:20:08;;;;;;;;;;;;;;;;;;5070516;28;19913;-72
2023/06/02 15:22:33;;;;;;;;;;;;;;;;;;5070637;28;19912;-72
2023/06/02 15:24:58;;;;;;;;;;;;;;;;;;5070771;28;20417;-72
2023/06/02 15:27:23;;;;;;;;;;;;;;;;;;5070415;28;20299;-70
2023/06/02 15:29:48;;;;;;;;;;;;;;;;;;5070433;28;19912;-72
2023/06/02 15:32:14;;;;;;;;;;;;;;;;;;5070416;28;19912;-71
2023/06/02 15:34:39;;;;;;;;;;;;;;;;;;5052886;28;19912;-70
2023/06/02 15:37:05;;;;;;;;;;;;;;;;;;5070530;28;20364;-73
2023/06/02 15:39:30;;;;;;;;;;;;;;;;;;5070590;28;19912;-71
2023/06/02 15:41:55;;;;;;;;;;;;;;;;;;5070319;28;19916;-71
2023/06/02 15:44:20;;;;;;;;;;;;;;;;;;5069933;28;19920;-71
2023/06/02 15:46:46;;;;;;;;;;;;;;;;;;5070232;28;19923;-71
2023/06/02 15:49:11;;;;;;;;;;;;;;;;;;5070292;28;19908;-73
2023/06/02 15:51:36;;;;;;;;;;;;;;;;;;5070166;28;19920;-72
2023/06/02 15:54:01;;;;;;;;;;;;;;;;;;5052224;28;19920;-72
2023/06/02 15:56:27;;;;;;;;;;;;;;;;;;5070244;28;19913;-72
2023/06/02 15:58:52;;;;;;;;;;;;;;;;;;5070238;28;19939;-72
2023/06/02 16:01:17;;;;;;;;;;;;;;;;;;5069794;28;19924;-71
2023/06/02 16:03:42;;;;;;;;;;;;;;;;;;5052031;28;19917;-73
2023/06/02 16:06:08;;;;;;;;;;;;;;;;;;5069913;28;20285;-72
2023/06/02 16:08:33;;;;;;;;;;;;;;;;;;5069956;28;20382;-71
2023/06/02 16:10:58;;;;;;;;;;;;;;;;;;5073933;28;19965;-73
2023/06/02 16:13:23;;;;;;;;;;;;;;;;;;5077076;28;20360;-71
2023/06/02 16:15:51;;;;;;;;;;;;;;;;;;5077550;28;19919;-72
2023/06/02 16:18:17;;;;;;;;;;;;;;;;;;5051829;28;20287;-73
2023/06/02 16:20:42;;;;;;;;;;;;;;;;;;5070024;28;19924;-72
2023/06/02 16:23:07;;;;;;;;;;;;;;;;;;5069612;28;20298;-72
2023/06/02 16:25:32;;;;;;;;;;;;;;;;;;5069617;28;20363;-73
2023/06/02 16:27:58;;;;;;;;;;;;;;;;;;5069378;28;19913;-72
2023/06/02 16:30:23;;;;;;;;;;;;;;;;;;5051598;28;19961;-73
2023/06/02 16:32:53;;;;;;;;;;;;;;;;;;5069619;28;19913;-72